Time;durP1;ratioP1;P1;durP2;ratioP2;P2;SDS_P1;SDS_P2;PMS_P1;PMS_P2;Temp;Humidity;BMP_temperature;BMP_pressure;BME280_temperature;BME280_humidity;BME280_pressure;Samples;Min_cycle;Max_cycle;Signal;HPM_P1;HPM_P2
2023/01/22 00:02:26;;;;;;;63.17;36.22;;;2.00;99.90;;;;;;5057545;28;20025;-73
2023/01/22 00:04:52;;;;;;;64.10;36.60;;;2.10;99.90;;;;;;5068571;28;20477;-73
2023/01/22 00:07:18;;;;;;;58.45;37.22;;;2.10;99.90;;;;;;5052991;28;20028;-76
2023/01/22 00:09:44;;;;;;;61.55;35.05;;;2.10;99.90;;;;;;5053260;28;20021;-74
2023/01/22 00:12:10;;;;;;;51.53;31.52;;;2.10;99.90;;;;;;5053429;28;20064;-72
2023/01/22 00:14:36;;;;;;;55.20;34.80;;;2.10;99.90;;;;;;5053296;28;20025;-74
2023/01/22 00:17:02;;;;;;;56.17;32.88;;;2.10;99.90;;;;;;5055321;28;20031;-76
2023/01/22 00:19:28;;;;;;;54.67;32.55;;;2.10;99.90;;;;;;5068171;28;20044;-73
2023/01/22 00:21:54;;;;;;;53.13;31.63;;;2.10;99.90;;;;;;5052489;28;20041;-73
2023/01/22 00:24:20;;;;;;;57.17;33.75;;;2.10;99.90;;;;;;5053126;28;20133;-73
2023/01/22 00:26:48;;;;;;;52.60;32.85;;;2.10;99.90;;;;;;5051488;28;20033;-73
2023/01/22 00:29:14;;;;;;;57.05;33.30;;;2.10;99.90;;;;;;5051898;28;20025;-73
2023/01/22 00:31:40;;;;;;;56.15;34.67;;;2.10;99.90;;;;;;5061979;28;20625;-73
2023/01/22 00:34:07;;;;;;;55.72;33.00;;;2.20;99.90;;;;;;5052075;28;20071;-73
2023/01/22 00:36:34;;;;;;;55.28;34.97;;;2.20;99.90;;;;;;5043830;28;20029;-73
2023/01/22 00:39:00;;;;;;;53.65;33.17;;;2.20;99.90;;;;;;5049016;28;20028;-73
2023/01/22 00:41:26;;;;;;;52.63;30.88;;;2.20;99.90;;;;;;5055562;28;20056;-75
2023/01/22 00:43:52;;;;;;;49.60;29.90;;;2.30;99.90;;;;;;5051552;28;20024;-73
2023/01/22 00:46:20;;;;;;;49.70;29.63;;;2.30;99.90;;;;;;5067829;28;20472;-73
2023/01/22 00:48:49;;;;;;;51.00;30.75;;;2.30;99.90;;;;;;5052463;28;20024;-74
2023/01/22 00:51:18;;;;;;;53.40;31.30;;;2.20;99.90;;;;;;5052479;28;20370;-73
2023/01/22 00:53:47;;;;;;;51.40;29.33;;;2.30;99.90;;;;;;5052372;28;20290;-74
2023/01/22 00:56:13;;;;;;;45.08;28.45;;;2.20;99.90;;;;;;5067959;28;20025;-73
2023/01/22 00:58:39;;;;;;;45.92;28.27;;;2.20;99.90;;;;;;5052463;28;20052;-73
2023/01/22 01:01:06;;;;;;;48.60;29.38;;;2.20;99.90;;;;;;5052389;28;20028;-75
2023/01/22 01:03:33;;;;;;;49.97;30.08;;;2.10;99.90;;;;;;5051989;28;20032;-75
2023/01/22 01:06:15;;;;;;;43.40;28.27;;;2.10;99.90;;;;;;5050758;28;20060;-74
2023/01/22 01:08:42;;;;;;;47.97;28.87;;;2.20;99.90;;;;;;5047188;28;20082;-74
2023/01/22 01:11:16;;;;;;;46.35;28.65;;;2.20;99.90;;;;;;5055144;28;20274;-75
2023/01/22 01:13:42;;;;;;;47.45;29.15;;;2.20;99.90;;;;;;5032042;28;20437;-77
2023/01/22 01:16:16;;;;;;;45.40;26.00;;;2.10;99.90;;;;;;5031194;28;20040;-75
2023/01/22 01:18:47;;;;;;;44.83;27.05;;;2.10;99.90;;;;;;5051620;28;20056;-76
2023/01/22 01:21:14;;;;;;;39.45;25.83;;;2.10;99.90;;;;;;5050519;28;20038;-74
2023/01/22 01:23:43;;;;;;;40.53;25.05;;;2.10;99.90;;;;;;5034994;28;20017;-75
2023/01/22 01:26:12;;;;;;;40.55;25.40;;;2.10;99.90;;;;;;5046678;28;20124;-75
2023/01/22 01:28:40;;;;;;;40.67;25.67;;;2.10;99.90;;;;;;5046933;28;20026;-74
2023/01/22 01:31:08;;;;;;;44.72;25.70;;;2.10;99.90;;;;;;5037059;28;20496;-74
2023/01/22 01:33:34;;;;;;;43.88;27.45;;;2.10;99.90;;;;;;5030549;28;20110;-75
2023/01/22 01:36:10;;;;;;;41.75;24.65;;;2.10;99.90;;;;;;5030022;28;20013;-75
2023/01/22 01:38:37;;;;;;;39.58;22.70;;;2.10;99.90;;;;;;5031003;28;20036;-74
2023/01/22 01:41:04;;;;;;;42.92;24.92;;;2.20;99.90;;;;;;5034898;28;20028;-74
2023/01/22 01:43:30;;;;;;;36.92;24.13;;;2.20;99.90;;;;;;5029390;28;20124;-74
2023/01/22 01:45:58;;;;;;;31.85;21.52;;;2.10;99.90;;;;;;5033849;28;20026;-74
2023/01/22 01:48:45;;;;;;;35.92;23.48;;;2.20;99.90;;;;;;5028684;28;20385;-74
2023/01/22 01:51:17;;;;;;;35.67;22.23;;;2.20;99.90;;;;;;5030360;28;20101;-74
2023/01/22 01:53:45;;;;;;;35.30;21.97;;;2.30;99.90;;;;;;5045312;28;20144;-73
2023/01/22 01:56:19;;;;;;;33.53;21.13;;;2.30;99.90;;;;;;5030678;28;20029;-75
2023/01/22 01:58:46;;;;;;;33.63;20.48;;;2.30;99.90;;;;;;5049303;28;20033;-74
2023/01/22 02:01:15;;;;;;;38.40;22.98;;;2.30;99.90;;;;;;5035344;28;20445;-73
2023/01/22 02:03:42;;;;;;;35.85;23.45;;;2.30;99.90;;;;;;5030413;28;20030;-74
2023/01/22 02:06:15;;;;;;;35.45;23.77;;;2.30;99.90;;;;;;5030248;28;20033;-75
2023/01/22 02:08:44;;;;;;;39.40;22.13;;;2.40;99.90;;;;;;5030405;28;20030;-74
2023/01/22 02:11:10;;;;;;;30.13;20.38;;;2.30;99.90;;;;;;5029128;28;20025;-74
2023/01/22 02:13:41;;;;;;;35.95;22.52;;;2.30;99.90;;;;;;5029093;28;20041;-75
2023/01/22 02:16:09;;;;;;;34.28;21.70;;;2.30;99.90;;;;;;5034103;28;20491;-73
2023/01/22 02:18:35;;;;;;;38.00;22.02;;;2.40;99.90;;;;;;5036749;28;20037;-75
2023/01/22 02:21:01;;;;;;;34.80;22.48;;;2.30;99.90;;;;;;5039254;28;20022;-73
2023/01/22 02:23:30;;;;;;;32.50;21.88;;;2.30;99.90;;;;;;5029880;28;20025;-73
2023/01/22 02:25:57;;;;;;;37.28;22.63;;;2.30;99.90;;;;;;5032783;28;20022;-73
2023/01/22 02:28:23;;;;;;;30.27;20.35;;;2.30;99.90;;;;;;5052734;28;20037;-73
2023/01/22 02:30:52;;;;;;;34.47;21.20;;;2.30;99.90;;;;;;5034303;28;20013;-73
2023/01/22 02:33:18;;;;;;;37.05;23.45;;;2.40;99.90;;;;;;5040446;28;20052;-75
2023/01/22 02:35:44;;;;;;;29.05;19.42;;;2.40;99.90;;;;;;5039017;28;20087;-73
2023/01/22 02:38:10;;;;;;;31.17;20.05;;;2.40;99.90;;;;;;5032633;28;20057;-73
2023/01/22 02:40:47;;;;;;;37.95;21.45;;;2.40;99.90;;;;;;5048668;28;20034;-73
2023/01/22 02:43:17;;;;;;;33.72;22.77;;;2.40;99.90;;;;;;5050818;28;20103;-73
2023/01/22 02:45:43;;;;;;;36.10;21.80;;;2.40;99.90;;;;;;5050556;28;20032;-73
2023/01/22 02:48:09;;;;;;;33.92;20.80;;;2.40;99.90;;;;;;5032238;28;20489;-73
2023/01/22 02:50:35;;;;;;;35.15;22.15;;;2.50;99.90;;;;;;5060320;28;20038;-73
2023/01/22 02:53:01;;;;;;;38.47;22.27;;;2.40;99.90;;;;;;5051808;28;20099;-73
2023/01/22 02:55:28;;;;;;;36.28;22.52;;;2.50;99.90;;;;;;5067990;28;20614;-73
2023/01/22 02:57:55;;;;;;;34.10;21.67;;;2.50;99.90;;;;;;5060153;28;20056;-73
2023/01/22 03:00:21;;;;;;;38.58;22.48;;;2.60;99.90;;;;;;5048239;28;20438;-73
2023/01/22 03:02:47;;;;;;;41.10;26.65;;;2.60;99.90;;;;;;5053190;28;20120;-73
2023/01/22 03:05:13;;;;;;;46.50;28.67;;;2.60;99.90;;;;;;5070251;28;20120;-73
2023/01/22 03:07:43;;;;;;;56.65;32.80;;;2.60;99.90;;;;;;5060961;28;20044;-73
2023/01/22 03:10:15;;;;;;;40.60;28.38;;;2.60;99.90;;;;;;5053862;28;20021;-73
2023/01/22 03:21:15;;;;;;;33.58;20.58;;;2.40;99.90;;;;;;5040693;28;20064;-76
2023/01/22 03:23:44;;;;;;;33.58;20.80;;;2.40;99.90;;;;;;5053960;28;20032;-74
2023/01/22 03:26:10;;;;;;;28.77;19.05;;;2.40;99.90;;;;;;5069404;28;20112;-73
2023/01/22 03:28:36;;;;;;;27.42;18.45;;;2.40;99.90;;;;;;5052905;28;20020;-73
2023/01/22 03:31:02;;;;;;;28.60;18.23;;;2.50;99.90;;;;;;5069518;28;20078;-73
2023/01/22 03:33:30;;;;;;;26.33;17.92;;;2.50;99.90;;;;;;5069502;28;20536;-73
2023/01/22 03:36:05;;;;;;;26.17;17.33;;;2.60;99.90;;;;;;5053895;28;20108;-72
2023/01/22 03:38:32;;;;;;;24.98;16.83;;;2.60;99.90;;;;;;5067818;28;20040;-73
2023/01/22 03:41:14;;;;;;;27.23;17.73;;;2.60;99.90;;;;;;5052526;28;20025;-73
2023/01/22 03:43:43;;;;;;;26.80;17.67;;;2.60;99.90;;;;;;5041645;28;20028;-73
2023/01/22 03:46:16;;;;;;;25.92;16.98;;;2.70;99.90;;;;;;5067756;28;20025;-74
2023/01/22 03:48:48;;;;;;;25.55;17.83;;;2.70;99.90;;;;;;5052393;28;20380;-74
2023/01/22 03:51:15;;;;;;;26.38;17.15;;;2.70;99.90;;;;;;5068969;28;20484;-74
2023/01/22 03:53:42;;;;;;;26.15;18.83;;;2.70;99.90;;;;;;5068862;28;20043;-73
2023/01/22 03:56:18;;;;;;;25.42;16.75;;;2.60;99.90;;;;;;5068655;28;20032;-72
2023/01/22 03:58:44;;;;;;;29.20;18.63;;;2.70;99.90;;;;;;5052442;28;20103;-73
2023/01/22 04:01:16;;;;;;;29.88;18.60;;;2.70;99.90;;;;;;5068846;28;20040;-72
2023/01/22 04:03:43;;;;;;;25.33;17.38;;;2.70;99.90;;;;;;5052169;28;20037;-74
2023/01/22 04:06:11;;;;;;;29.10;17.58;;;2.60;99.90;;;;;;5052281;28;20017;-72
2023/01/22 04:08:39;;;;;;;28.77;17.48;;;2.70;99.90;;;;;;5066072;28;20036;-73
2023/01/22 04:11:05;;;;;;;28.83;18.80;;;2.70;99.90;;;;;;5052073;28;20049;-73
2023/01/22 04:13:33;;;;;;;31.08;20.70;;;2.80;99.90;;;;;;5053057;28;20049;-73
2023/01/22 04:15:59;;;;;;;34.70;20.17;;;2.80;99.90;;;;;;5068795;28;20017;-73
2023/01/22 04:18:57;;;;;;;25.40;17.88;;;2.80;99.90;;;;;;5031930;28;20115;-73
2023/01/22 04:21:29;;;;;;;27.42;17.92;;;2.80;99.90;;;;;;5031066;28;20041;-74
2023/01/22 04:23:57;;;;;;;29.17;18.70;;;2.80;99.90;;;;;;5031363;28;20104;-72
2023/01/22 04:26:23;;;;;;;29.33;19.58;;;2.80;99.90;;;;;;5030213;28;20128;-72
2023/01/22 04:28:49;;;;;;;30.63;18.52;;;2.90;99.90;;;;;;5030697;28;20504;-72
2023/01/22 04:31:18;;;;;;;26.35;16.88;;;2.90;99.90;;;;;;5030505;28;20037;-72
2023/01/22 04:33:56;;;;;;;32.85;21.42;;;2.90;99.90;;;;;;5030618;28;20260;-72
2023/01/22 04:36:26;;;;;;;31.25;19.85;;;2.90;99.90;;;;;;5035845;28;20033;-73
2023/01/22 04:38:52;;;;;;;30.63;20.33;;;2.90;99.90;;;;;;5030444;28;20037;-76
2023/01/22 04:41:18;;;;;;;31.77;21.55;;;3.00;99.90;;;;;;5030747;28;20531;-77
2023/01/22 04:43:44;;;;;;;33.05;22.17;;;3.10;99.90;;;;;;5030535;28;20029;-73
2023/01/22 04:46:10;;;;;;;32.63;20.27;;;3.10;99.90;;;;;;5030842;28;20033;-74
2023/01/22 04:48:36;;;;;;;32.53;20.90;;;3.10;99.90;;;;;;5014205;28;20029;-73
2023/01/22 04:51:02;;;;;;;30.67;20.83;;;2.90;99.90;;;;;;5030649;28;20065;-73
2023/01/22 04:53:30;;;;;;;31.73;20.42;;;3.00;99.90;;;;;;5031583;28;20493;-73
2023/01/22 04:55:56;;;;;;;34.28;21.63;;;3.00;99.90;;;;;;5049527;28;20087;-73
2023/01/22 04:58:22;;;;;;;32.90;20.10;;;3.10;99.90;;;;;;5052173;28;20025;-73
2023/01/22 05:00:49;;;;;;;39.78;23.60;;;3.10;99.90;;;;;;5067773;28;20112;-73
2023/01/22 05:03:15;;;;;;;43.08;28.38;;;3.10;99.90;;;;;;5051291;28;20021;-73
2023/01/22 05:05:41;;;;;;;39.83;26.88;;;3.10;99.90;;;;;;5067304;28;20032;-76
2023/01/22 05:08:07;;;;;;;38.08;25.40;;;3.20;99.90;;;;;;5050747;28;20470;-72
2023/01/22 05:10:35;;;;;;;36.20;25.17;;;3.20;99.90;;;;;;5050814;28;20037;-72
2023/01/22 05:13:04;;;;;;;38.28;25.42;;;3.20;99.90;;;;;;5067785;28;20037;-73
2023/01/22 05:15:32;;;;;;;37.15;24.67;;;3.30;99.90;;;;;;5063368;28;20021;-73
2023/01/22 05:18:03;;;;;;;36.58;23.98;;;3.20;99.90;;;;;;5066140;28;20052;-73
2023/01/22 05:20:33;;;;;;;36.58;22.98;;;3.30;99.90;;;;;;5040497;28;20034;-74
2023/01/22 05:22:59;;;;;;;33.92;22.13;;;3.30;99.90;;;;;;5056446;28;20035;-73
2023/01/22 05:25:26;;;;;;;42.05;25.45;;;3.30;99.90;;;;;;5047908;28;20032;-73
2023/01/22 05:27:52;;;;;;;41.38;26.05;;;3.40;99.90;;;;;;5067566;28;20033;-74
2023/01/22 05:30:29;;;;;;;67.05;40.80;;;3.40;99.90;;;;;;5065888;28;20475;-74
2023/01/22 05:33:08;;;;;;;61.10;36.55;;;3.30;99.90;;;;;;5067285;28;20044;-73
2023/01/22 05:35:34;;;;;;;48.03;30.20;;;3.30;99.90;;;;;;5067125;28;20029;-73
2023/01/22 05:38:00;;;;;;;38.13;24.90;;;3.30;99.90;;;;;;5067716;28;20064;-71
2023/01/22 05:40:26;;;;;;;34.28;24.15;;;3.30;99.90;;;;;;5065727;28;20021;-72
2023/01/22 05:42:52;;;;;;;33.58;22.90;;;3.30;99.90;;;;;;5067440;28;20071;-74
2023/01/22 05:45:20;;;;;;;33.15;20.98;;;3.30;99.90;;;;;;5067342;28;20028;-72
2023/01/22 05:48:04;;;;;;;33.55;23.10;;;3.30;99.90;;;;;;5061269;28;20037;-72
2023/01/22 05:50:52;;;;;;;34.38;24.30;;;3.40;99.90;;;;;;5051794;28;20048;-72
2023/01/22 05:53:21;;;;;;;39.50;26.10;;;3.40;99.90;;;;;;5050252;28;20037;-73
2023/01/22 05:55:47;;;;;;;36.13;23.77;;;3.40;99.90;;;;;;5050229;28;20488;-73
2023/01/22 05:58:13;;;;;;;35.65;23.92;;;3.40;99.90;;;;;;5067410;28;20488;-72
2023/01/22 06:00:42;;;;;;;35.95;22.95;;;3.50;99.90;;;;;;5069181;28;20031;-72
2023/01/22 06:03:10;;;;;;;39.97;25.02;;;3.50;99.90;;;;;;5066507;28;20456;-72
2023/01/22 06:05:44;;;;;;;37.72;25.80;;;3.60;99.90;;;;;;5070996;28;20032;-73
2023/01/22 06:08:10;;;;;;;37.92;26.55;;;3.60;99.90;;;;;;5071572;28;20384;-73
2023/01/22 06:10:43;;;;;;;41.42;26.05;;;3.60;99.90;;;;;;5054603;28;20025;-73
2023/01/22 06:13:09;;;;;;;42.47;28.08;;;3.60;99.90;;;;;;5037200;28;20044;-72
2023/01/22 06:15:35;;;;;;;44.65;28.52;;;3.40;99.90;;;;;;5054476;28;20021;-73
2023/01/22 06:18:14;;;;;;;46.63;29.10;;;3.50;99.90;;;;;;5070711;28;20083;-73
2023/01/22 06:20:40;;;;;;;41.25;27.23;;;3.50;99.90;;;;;;5055753;28;20060;-73
2023/01/22 06:23:07;;;;;;;38.75;25.38;;;3.50;99.90;;;;;;5069185;28;20610;-72
2023/01/22 06:25:33;;;;;;;38.40;24.77;;;3.50;99.90;;;;;;5070808;28;20125;-73
2023/01/22 06:28:10;;;;;;;35.90;23.33;;;3.50;99.90;;;;;;5054220;28;20025;-73
2023/01/22 06:30:37;;;;;;;36.75;23.42;;;3.50;99.90;;;;;;5053732;28;20040;-73
2023/01/22 06:33:03;;;;;;;35.75;22.70;;;3.40;99.90;;;;;;5070579;28;20045;-73
2023/01/22 06:35:29;;;;;;;35.60;23.52;;;3.40;99.90;;;;;;5055217;28;20042;-73
2023/01/22 06:37:55;;;;;;;33.83;21.80;;;3.40;99.90;;;;;;5055278;28;20025;-72
2023/01/22 06:40:22;;;;;;;33.05;22.67;;;3.40;99.90;;;;;;5070554;28;20022;-72
2023/01/22 06:42:49;;;;;;;38.20;23.88;;;3.40;99.90;;;;;;5070920;28;20040;-74
2023/01/22 06:45:16;;;;;;;35.78;23.25;;;3.40;99.90;;;;;;5065202;28;20182;-74
2023/01/22 06:47:47;;;;;;;36.22;22.75;;;3.40;99.90;;;;;;5053660;28;20033;-74
2023/01/22 06:50:14;;;;;;;40.92;25.15;;;3.50;99.90;;;;;;5070681;28;20057;-74
2023/01/22 06:52:40;;;;;;;39.28;25.85;;;3.50;99.90;;;;;;5050635;28;20033;-74
2023/01/22 06:55:07;;;;;;;43.25;28.08;;;3.60;99.90;;;;;;5060094;28;20022;-74
2023/01/22 06:57:33;;;;;;;45.08;28.48;;;3.50;99.90;;;;;;5050684;28;20037;-74
2023/01/22 07:00:00;;;;;;;41.25;29.77;;;3.50;99.90;;;;;;5049708;28;20120;-74
2023/01/22 07:02:26;;;;;;;41.72;26.98;;;3.50;99.90;;;;;;5033653;28;20053;-74
2023/01/22 07:04:51;;;;;;;39.33;25.88;;;3.60;99.90;;;;;;5034057;28;20049;-75
2023/01/22 07:07:17;;;;;;;40.90;25.48;;;3.70;99.90;;;;;;5040277;28;20071;-74
2023/01/22 07:09:43;;;;;;;39.00;24.52;;;3.70;99.90;;;;;;5033888;28;20460;-75
2023/01/22 07:12:09;;;;;;;35.63;23.80;;;3.60;99.90;;;;;;5040827;28;20072;-73
2023/01/22 07:14:35;;;;;;;39.17;24.13;;;3.70;99.90;;;;;;5036625;28;20025;-74
2023/01/22 07:17:00;;;;;;;42.53;27.50;;;3.70;99.90;;;;;;5042109;28;20402;-74
2023/01/22 07:19:26;;;;;;;38.53;25.35;;;3.70;99.90;;;;;;5039150;28;20045;-74
2023/01/22 07:21:52;;;;;;;40.45;27.40;;;3.80;99.90;;;;;;5036748;28;20361;-74
2023/01/22 07:24:18;;;;;;;39.08;26.60;;;3.80;99.90;;;;;;5036372;28;20044;-72
2023/01/22 07:26:45;;;;;;;38.28;24.90;;;3.90;99.90;;;;;;5038683;28;20024;-72
2023/01/22 07:29:10;;;;;;;44.00;28.10;;;4.00;99.90;;;;;;5040696;28;20040;-72
2023/01/22 07:31:36;;;;;;;41.40;27.45;;;4.00;99.90;;;;;;5052692;28;20672;-73
2023/01/22 07:34:03;;;;;;;41.28;27.83;;;4.00;99.90;;;;;;5053699;28;20442;-74
2023/01/22 07:36:29;;;;;;;43.08;25.98;;;4.10;99.90;;;;;;5053689;28;20024;-73
2023/01/22 07:38:54;;;;;;;39.88;27.02;;;4.00;99.90;;;;;;5050834;28;20024;-72
2023/01/22 07:41:20;;;;;;;39.45;27.55;;;4.20;99.90;;;;;;5045548;28;20155;-73
2023/01/22 07:43:48;;;;;;;42.10;24.95;;;4.10;99.90;;;;;;5043050;28;20530;-72
2023/01/22 07:46:14;;;;;;;33.08;22.13;;;4.10;99.90;;;;;;5048094;28;20027;-72
2023/01/22 07:48:40;;;;;;;36.72;26.25;;;4.20;99.90;;;;;;5049498;28;20102;-72
2023/01/22 07:51:06;;;;;;;43.47;27.60;;;4.10;99.90;;;;;;5053013;28;20041;-73
2023/01/22 07:53:33;;;;;;;40.80;26.08;;;4.20;99.90;;;;;;5053475;28;20033;-72
2023/01/22 07:56:00;;;;;;;42.45;25.30;;;4.20;99.90;;;;;;5052000;28;20028;-74
2023/01/22 07:58:27;;;;;;;39.08;26.83;;;4.10;99.90;;;;;;5047824;28;20076;-73
2023/01/22 08:00:53;;;;;;;38.72;24.80;;;4.20;99.90;;;;;;5043523;28;20021;-74
2023/01/22 08:03:18;;;;;;;35.38;23.20;;;4.40;99.90;;;;;;5043627;28;20477;-73
2023/01/22 08:05:45;;;;;;;36.33;23.75;;;4.40;99.90;;;;;;5042274;28;20040;-73
2023/01/22 08:08:16;;;;;;;38.58;24.20;;;4.50;99.90;;;;;;5044080;28;20028;-72
2023/01/22 08:10:43;;;;;;;38.00;24.70;;;4.80;99.90;;;;;;5044437;28;20017;-72
2023/01/22 08:13:09;;;;;;;50.80;28.30;;;4.80;99.90;;;;;;5043542;28;20029;-73
2023/01/22 08:15:35;;;;;;;46.88;31.83;;;4.90;99.90;;;;;;5044814;28;20078;-73
2023/01/22 08:18:01;;;;;;;51.00;32.35;;;4.90;99.90;;;;;;5047876;28;20078;-74
2023/01/22 08:20:27;;;;;;;56.55;31.70;;;4.80;99.90;;;;;;5046967;28;20049;-73
2023/01/22 08:22:57;;;;;;;49.38;30.67;;;4.60;99.90;;;;;;5041612;28;20056;-72
2023/01/22 08:25:23;;;;;;;47.78;30.80;;;4.60;99.90;;;;;;5042588;28;20021;-73
2023/01/22 08:27:49;;;;;;;49.78;31.25;;;4.60;99.90;;;;;;5042046;28;20105;-73
2023/01/22 08:30:15;;;;;;;50.25;30.52;;;4.70;99.90;;;;;;5044467;28;20503;-72
2023/01/22 08:32:43;;;;;;;44.47;29.70;;;4.70;99.90;;;;;;5043146;28;20528;-73
2023/01/22 08:35:09;;;;;;;42.97;24.35;;;4.70;99.90;;;;;;5043578;28;20029;-72
2023/01/22 08:37:35;;;;;;;36.95;25.02;;;4.50;99.90;;;;;;5041835;28;20034;-73
2023/01/22 08:40:01;;;;;;;40.55;25.60;;;4.20;99.90;;;;;;5042516;28;20162;-72
2023/01/22 08:42:27;;;;;;;47.85;27.80;;;4.20;99.90;;;;;;5044171;28;20086;-73
2023/01/22 08:44:53;;;;;;;44.35;26.65;;;4.10;99.90;;;;;;5041865;28;20025;-73
2023/01/22 08:47:19;;;;;;;41.45;26.10;;;3.80;99.90;;;;;;5040669;28;20043;-73
2023/01/22 08:49:44;;;;;;;47.72;28.10;;;3.80;99.90;;;;;;5043024;28;20144;-73
2023/01/22 08:52:10;;;;;;;50.35;29.58;;;3.70;99.90;;;;;;5040444;28;20388;-72
2023/01/22 08:54:39;;;;;;;50.65;29.80;;;3.70;99.90;;;;;;5041390;28;20025;-72
2023/01/22 08:57:05;;;;;;;49.72;30.85;;;3.80;99.90;;;;;;5041364;28;20028;-72
2023/01/22 08:59:30;;;;;;;52.55;32.30;;;3.90;99.90;;;;;;5042643;28;20469;-72
2023/01/22 09:01:58;;;;;;;43.78;28.08;;;3.90;99.90;;;;;;5041643;28;20020;-72
2023/01/22 09:04:24;;;;;;;42.08;26.65;;;3.90;99.90;;;;;;5040582;28;20120;-72
2023/01/22 09:06:50;;;;;;;46.33;28.05;;;3.80;99.90;;;;;;5043042;28;20507;-72
2023/01/22 09:09:16;;;;;;;44.95;27.85;;;3.90;99.90;;;;;;5039314;28;20105;-73
2023/01/22 09:11:43;;;;;;;46.38;28.88;;;3.90;99.90;;;;;;5038348;28;20366;-72
2023/01/22 09:14:09;;;;;;;42.38;27.27;;;4.00;99.90;;;;;;5048214;28;20119;-72
2023/01/22 09:16:35;;;;;;;40.20;27.63;;;4.00;99.90;;;;;;5037278;28;20105;-73
2023/01/22 09:19:02;;;;;;;42.78;26.15;;;4.00;99.90;;;;;;5032458;28;20408;-73
2023/01/22 09:21:29;;;;;;;48.55;27.85;;;4.20;99.90;;;;;;5045758;28;20025;-73
2023/01/22 09:23:54;;;;;;;37.40;24.23;;;4.30;99.90;;;;;;5051483;28;20029;-74
2023/01/22 09:26:20;;;;;;;35.83;23.15;;;4.30;99.90;;;;;;5039113;28;20371;-73
2023/01/22 09:28:46;;;;;;;36.03;22.00;;;4.20;99.90;;;;;;5051812;28;20384;-73
2023/01/22 09:31:12;;;;;;;34.67;20.75;;;4.30;99.90;;;;;;5051865;28;20093;-73
2023/01/22 09:33:38;;;;;;;34.03;21.67;;;4.20;99.90;;;;;;5051568;28;20033;-74
2023/01/22 09:36:13;;;;;;;35.28;22.15;;;4.20;99.90;;;;;;5051918;28;20017;-73
2023/01/22 09:38:40;;;;;;;35.40;22.63;;;4.30;99.90;;;;;;5051888;28;20365;-74
2023/01/22 09:41:26;;;;;;;23.60;15.82;;;4.20;99.90;;;;;;5051862;28;20028;-72
2023/01/22 09:44:09;;;;;;;19.10;13.15;;;4.10;99.90;;;;;;5040975;28;20104;-72
2023/01/22 09:46:56;;;;;;;22.33;14.70;;;3.90;99.90;;;;;;5043111;28;20073;-72
2023/01/22 09:49:31;;;;;;;27.67;15.98;;;4.20;99.90;;;;;;5035291;28;20488;-73
2023/01/22 09:51:59;;;;;;;26.33;15.95;;;4.30;99.90;;;;;;5046301;28;20029;-73
2023/01/22 09:54:28;;;;;;;23.65;14.38;;;4.50;99.90;;;;;;5033344;28;20500;-71
2023/01/22 09:56:57;;;;;;;22.60;12.60;;;4.60;99.90;;;;;;5041787;28;20103;-72
2023/01/22 09:59:26;;;;;;;18.33;11.75;;;4.80;99.90;;;;;;5050742;28;20107;-72
2023/01/22 10:01:56;;;;;;;18.70;10.23;;;4.90;99.90;;;;;;5049985;28;20083;-72
2023/01/22 10:04:40;;;;;;;12.75;6.95;;;5.00;99.90;;;;;;5038759;28;20119;-72
2023/01/22 10:07:14;;;;;;;11.30;6.72;;;4.80;99.90;;;;;;5050229;28;20142;-72
2023/01/22 10:09:49;;;;;;;12.95;6.85;;;4.90;99.90;;;;;;5033045;28;20388;-72
2023/01/22 10:12:15;;;;;;;12.00;7.00;;;4.80;99.90;;;;;;5037430;28;20029;-72
2023/01/22 10:14:42;;;;;;;11.93;7.13;;;4.70;99.90;;;;;;5043080;28;20055;-73
2023/01/22 10:17:18;;;;;;;13.68;7.00;;;4.80;99.90;;;;;;5038563;28;20092;-72
2023/01/22 10:19:51;;;;;;;13.82;7.75;;;4.90;99.90;;;;;;5037487;28;20075;-72
2023/01/22 10:22:22;;;;;;;12.65;7.75;;;5.00;99.90;;;;;;5040556;28;20029;-72
2023/01/22 10:24:49;;;;;;;10.70;6.72;;;5.00;99.90;;;;;;5040442;28;20357;-72
2023/01/22 10:27:30;;;;;;;14.73;7.50;;;4.80;99.90;;;;;;5040519;28;20021;-71
2023/01/22 10:30:21;;;;;;;12.10;6.95;;;4.70;99.90;;;;;;5046413;28;20040;-72
2023/01/22 10:33:00;;;;;;;13.15;7.03;;;4.70;99.90;;;;;;5042433;28;20041;-72
2023/01/22 10:35:27;;;;;;;13.68;7.88;;;4.60;99.90;;;;;;5042157;28;20029;-72
2023/01/22 10:37:54;;;;;;;14.30;8.70;;;4.50;99.90;;;;;;5042035;28;20024;-71
2023/01/22 10:40:34;;;;;;;16.80;9.75;;;4.50;99.90;;;;;;5040679;28;20389;-72
2023/01/22 10:43:03;;;;;;;18.77;10.25;;;4.60;99.90;;;;;;5039490;28;20032;-73
2023/01/22 10:45:29;;;;;;;16.52;9.50;;;4.70;99.90;;;;;;5042060;28;20033;-72
2023/01/22 10:48:15;;;;;;;14.52;8.25;;;4.60;99.90;;;;;;5043650;28;20047;-72
2023/01/22 10:50:42;;;;;;;14.10;8.45;;;4.60;99.90;;;;;;5035757;28;20041;-72
2023/01/22 10:53:22;;;;;;;16.08;9.73;;;4.60;99.90;;;;;;5037153;28;20532;-72
2023/01/22 10:55:53;;;;;;;15.70;9.32;;;4.70;99.90;;;;;;5049434;28;20025;-73
2023/01/22 10:58:23;;;;;;;15.25;9.88;;;4.60;99.90;;;;;;5044504;28;20017;-72
2023/01/22 11:00:57;;;;;;;15.07;9.05;;;4.70;99.90;;;;;;5040798;28;20021;-73
2023/01/22 11:03:36;;;;;;;15.95;9.18;;;4.80;99.90;;;;;;5054282;28;20056;-73
2023/01/22 11:06:33;;;;;;;15.05;9.18;;;4.80;99.90;;;;;;5041525;28;20017;-73
2023/01/22 11:09:15;;;;;;;15.82;9.90;;;4.80;99.90;;;;;;5049445;28;20033;-73
2023/01/22 11:11:47;;;;;;;15.85;8.45;;;4.90;99.90;;;;;;5054343;28;20029;-73
2023/01/22 11:14:22;;;;;;;14.90;9.55;;;4.80;99.90;;;;;;5053889;28;20443;-73
2023/01/22 11:16:51;;;;;;;15.45;8.70;;;4.80;99.90;;;;;;5052320;28;20075;-73
2023/01/22 11:19:20;;;;;;;15.00;8.82;;;4.80;99.90;;;;;;5060787;28;20045;-73
2023/01/22 11:21:51;;;;;;;11.02;6.97;;;4.80;99.90;;;;;;5054225;28;20083;-75
2023/01/22 11:24:36;;;;;;;13.43;8.07;;;4.70;99.90;;;;;;5054114;28;20349;-74
2023/01/22 11:27:21;;;;;;;12.52;7.60;;;4.60;99.90;;;;;;5046410;28;20083;-73
2023/01/22 11:29:56;;;;;;;13.73;9.20;;;4.60;99.90;;;;;;5051269;28;20044;-73
2023/01/22 11:32:30;;;;;;;18.70;11.52;;;4.60;99.90;;;;;;5052793;28;20400;-73
2023/01/22 11:35:15;;;;;;;15.65;9.60;;;4.70;99.90;;;;;;5053706;28;20021;-73
2023/01/22 11:37:47;;;;;;;18.45;10.63;;;4.60;99.90;;;;;;5053808;28;20031;-73
2023/01/22 11:40:26;;;;;;;19.90;11.65;;;4.50;99.90;;;;;;5053793;28;20543;-73
2023/01/22 11:43:04;;;;;;;19.13;12.88;;;4.50;99.90;;;;;;5053700;28;20503;-73
2023/01/22 11:45:39;;;;;;;18.55;11.63;;;4.70;99.90;;;;;;5053560;28;20123;-74
2023/01/22 11:48:11;;;;;;;17.30;11.25;;;4.70;99.90;;;;;;5053945;28;20033;-75
2023/01/22 11:50:49;;;;;;;28.48;17.00;;;4.70;99.90;;;;;;5053621;28;20036;-73
2023/01/22 11:53:50;;;;;;;14.55;7.78;;;4.80;99.90;;;;;;5053611;28;20037;-73
2023/01/22 11:56:24;;;;;;;41.95;24.92;;;4.70;99.90;;;;;;4992472;28;20117;-73
2023/01/22 11:59:10;;;;;;;17.25;9.00;;;4.70;99.90;;;;;;4992395;28;20375;-73
2023/01/22 12:01:48;;;;;;;16.48;9.70;;;4.70;99.90;;;;;;4979985;28;20027;-73
2023/01/22 12:04:26;;;;;;;9.85;6.55;;;4.80;99.90;;;;;;4991997;28;20042;-72
2023/01/22 12:07:06;;;;;;;15.13;7.82;;;4.80;99.90;;;;;;4992419;28;20026;-73
2023/01/22 12:09:37;;;;;;;17.23;11.18;;;4.70;99.90;;;;;;4991919;28;20513;-72
2023/01/22 12:12:11;;;;;;;18.88;10.45;;;4.60;99.90;;;;;;4975422;28;20035;-72
2023/01/22 12:15:04;;;;;;;12.52;6.68;;;4.60;99.90;;;;;;4992230;28;20038;-73
2023/01/22 12:17:52;;;;;;;25.07;12.90;;;4.60;99.90;;;;;;4991599;28;20113;-73
2023/01/22 12:20:37;;;;;;;41.72;23.02;;;4.60;99.90;;;;;;4933818;29;20052;-73
2023/01/22 12:23:22;;;;;;;36.08;22.83;;;4.60;99.90;;;;;;4934028;29;20070;-72
2023/01/22 12:25:52;;;;;;;47.30;26.00;;;4.50;99.90;;;;;;4933986;29;20043;-72
2023/01/22 12:28:29;;;;;;;54.30;29.13;;;4.40;99.90;;;;;;4933699;28;20091;-73
2023/01/22 12:31:01;;;;;;;27.52;15.88;;;4.50;99.90;;;;;;4972042;28;20105;-73
2023/01/22 12:33:30;;;;;;;16.70;9.43;;;4.40;99.90;;;;;;4991631;28;20049;-73
2023/01/22 12:35:59;;;;;;;19.00;11.13;;;4.30;99.90;;;;;;4991709;28;20110;-73
2023/01/22 12:38:50;;;;;;;23.45;11.88;;;4.40;99.90;;;;;;4991595;28;20046;-73
2023/01/22 12:41:28;;;;;;;28.70;16.33;;;4.50;99.90;;;;;;4991308;28;20065;-73
2023/01/22 12:44:02;;;;;;;21.05;13.02;;;4.50;99.90;;;;;;4991565;28;20896;-73
2023/01/22 12:46:30;;;;;;;20.52;12.73;;;4.40;99.90;;;;;;4991517;28;20034;-74
2023/01/22 12:49:11;;;;;;;24.23;14.30;;;4.30;99.90;;;;;;4991338;28;20074;-73
2023/01/22 12:51:48;;;;;;;20.70;12.50;;;4.40;99.90;;;;;;4990946;28;20050;-73
2023/01/22 12:54:32;;;;;;;22.77;14.85;;;4.50;99.90;;;;;;4991520;28;20084;-73
2023/01/22 12:57:13;;;;;;;21.20;13.80;;;4.50;99.90;;;;;;5023548;28;20446;-74
2023/01/22 12:59:45;;;;;;;21.38;13.20;;;4.40;99.90;;;;;;5052139;28;20045;-72
2023/01/22 13:02:31;;;;;;;23.42;14.77;;;4.50;99.90;;;;;;5052658;28;20029;-72